Time;durP1;ratioP1;P1;durP2;ratioP2;P2;SDS_P1;SDS_P2;PMS_P1;PMS_P2;Temp;Humidity;BMP_temperature;BMP_pressure;BME280_temperature;BME280_humidity;BME280_pressure;Samples;Min_cycle;Max_cycle;Signal;HPM_P1;HPM_P2
2022/12/02 00:00:51;;;;;;;20.73;9.05;;;3.80;99.90;;;;;;6123173;19;20341;-64
2022/12/02 00:02:58;;;;;;;21.48;8.45;;;3.60;99.90;;;;;;6123501;19;19915;-65
2022/12/02 00:05:05;;;;;;;27.73;9.75;;;4.00;99.90;;;;;;6123799;19;19929;-65
2022/12/02 00:07:17;;;;;;;23.88;9.38;;;3.80;99.90;;;;;;6123910;19;19915;-64
2022/12/02 00:09:29;;;;;;;27.55;10.93;;;4.30;99.90;;;;;;6123872;19;20254;-64
2022/12/02 00:11:34;;;;;;;28.95;10.48;;;3.70;99.90;;;;;;6129484;19;19918;-64
2022/12/02 00:13:43;;;;;;;26.35;10.75;;;3.70;99.90;;;;;;6133032;19;19922;-64
2022/12/02 00:15:48;;;;;;;27.92;10.38;;;3.90;99.90;;;;;;6131468;19;19954;-64
2022/12/02 00:17:52;;;;;;;28.85;11.30;;;;;;;;;;6130545;19;19930;-65
2022/12/02 00:19:57;;;;;;;26.83;10.88;;;3.80;99.90;;;;;;6128929;19;19950;-64
2022/12/02 00:22:01;;;;;;;23.92;9.85;;;3.90;99.90;;;;;;6129042;19;19915;-64
2022/12/02 00:24:05;;;;;;;27.27;12.23;;;3.50;99.90;;;;;;6126392;19;19979;-65
2022/12/02 00:26:12;;;;;;;22.90;9.63;;;3.90;99.90;;;;;;6128349;19;19924;-64
2022/12/02 00:28:16;;;;;;;29.50;10.88;;;3.40;99.90;;;;;;6128677;19;19915;-64
2022/12/02 00:30:20;;;;;;;27.75;10.77;;;;;;;;;;6129193;19;19922;-65
2022/12/02 00:32:24;;;;;;;30.92;11.15;;;3.80;99.90;;;;;;6129080;19;19937;-65
2022/12/02 00:34:28;;;;;;;33.03;13.05;;;;;;;;;;6128903;19;19947;-65
2022/12/02 00:36:33;;;;;;;29.67;11.00;;;3.70;99.90;;;;;;6128414;19;19919;-64
2022/12/02 00:38:37;;;;;;;31.38;10.88;;;;;;;;;;6128177;19;19930;-65
2022/12/02 00:40:41;;;;;;;29.48;9.93;;;3.70;99.90;;;;;;6129504;19;20414;-65
2022/12/02 00:42:47;;;;;;;28.02;10.95;;;3.90;99.90;;;;;;6129097;19;20348;-66
2022/12/02 00:47:05;;;;;;;30.48;10.32;;;;;;;;;;6129056;19;19936;-64
2022/12/02 00:49:11;;;;;;;31.88;12.05;;;3.60;99.90;;;;;;6128907;19;19976;-64
2022/12/02 00:51:15;;;;;;;30.55;10.93;;;;;;;;;;6127148;19;19939;-64
2022/12/02 00:53:19;;;;;;;29.65;10.57;;;;;;;;;;6127935;19;19938;-64
2022/12/02 00:55:23;;;;;;;30.75;11.20;;;;;;;;;;6127685;19;20295;-64
2022/12/02 00:57:27;;;;;;;31.90;11.25;;;;;;;;;;6128140;19;20356;-64
2022/12/02 00:59:34;;;;;;;28.65;10.50;;;3.70;99.90;;;;;;6129166;19;20329;-64
2022/12/02 01:01:39;;;;;;;29.92;11.07;;;3.70;99.90;;;;;;6129874;19;19922;-64
2022/12/02 01:03:43;;;;;;;34.67;12.77;;;;;;;;;;6128551;19;19922;-64
2022/12/02 01:05:48;;;;;;;34.40;11.63;;;;;;;;;;6127149;19;19943;-64
2022/12/02 01:07:52;;;;;;;31.48;11.75;;;;;;;;;;6129473;19;19922;-64
2022/12/02 01:09:56;;;;;;;27.63;11.70;;;3.50;99.90;;;;;;6124381;19;19915;-64
2022/12/02 01:12:00;;;;;;;29.38;11.02;;;;;;;;;;6129435;19;19922;-64
2022/12/02 01:14:04;;;;;;;30.63;12.75;;;;;;;;;;6128368;19;19919;-64
2022/12/02 01:16:11;;;;;;;29.23;10.32;;;3.50;99.90;;;;;;6128773;19;19943;-64
2022/12/02 01:18:15;;;;;;;28.15;10.82;;;3.60;99.90;;;;;;6130416;19;19922;-64
2022/12/02 01:20:19;;;;;;;30.02;10.70;;;3.60;99.90;;;;;;6127825;19;20290;-63
2022/12/02 01:22:23;;;;;;;27.20;10.70;;;3.30;99.90;;;;;;6125107;19;19933;-63
2022/12/02 01:24:27;;;;;;;25.80;10.77;;;3.60;99.90;;;;;;6126259;19;20015;-64
2022/12/02 01:26:31;;;;;;;27.73;11.38;;;3.40;99.90;;;;;;6127040;19;19970;-64
2022/12/02 01:28:35;;;;;;;30.58;10.63;;;;;;;;;;6127659;19;19925;-64
2022/12/02 01:30:39;;;;;;;30.90;10.68;;;3.30;99.90;;;;;;6126525;19;19923;-63
2022/12/02 01:32:45;;;;;;;32.28;11.05;;;3.40;99.90;;;;;;6126551;19;19951;-65
2022/12/02 01:34:49;;;;;;;28.42;10.85;;;3.10;99.90;;;;;;6128360;19;19914;-63
2022/12/02 01:36:53;;;;;;;24.00;10.25;;;3.10;99.90;;;;;;6129816;19;19929;-63
2022/12/02 01:38:57;;;;;;;30.00;11.43;;;;;;;;;;6129273;19;20307;-64
2022/12/02 01:41:02;;;;;;;28.80;11.68;;;3.40;99.90;;;;;;6128092;19;19929;-64
2022/12/02 01:43:06;;;;;;;29.85;10.48;;;3.40;99.90;;;;;;6128756;19;19918;-64
2022/12/02 01:45:12;;;;;;;25.17;10.27;;;3.40;99.90;;;;;;6125911;19;19919;-64
2022/12/02 01:47:16;;;;;;;27.58;10.80;;;;;;;;;;6124483;19;19951;-64
2022/12/02 01:49:23;;;;;;;23.85;10.23;;;3.30;99.90;;;;;;6126921;19;19966;-65
2022/12/02 01:51:27;;;;;;;27.42;10.73;;;3.40;99.90;;;;;;6126299;19;19923;-64
2022/12/02 01:53:31;;;;;;;30.88;11.20;;;;;;;;;;6129293;19;19951;-65
2022/12/02 01:55:35;;;;;;;28.42;10.75;;;3.10;99.90;;;;;;6125872;19;19947;-64
2022/12/02 01:57:39;;;;;;;26.55;10.45;;;3.20;99.90;;;;;;6124991;19;20353;-64
2022/12/02 01:59:44;;;;;;;28.35;10.40;;;2.90;99.90;;;;;;6128711;19;19918;-64
2022/12/02 02:01:48;;;;;;;27.27;11.15;;;;;;;;;;6124975;19;19922;-64
2022/12/02 02:03:52;;;;;;;29.15;10.50;;;2.80;99.90;;;;;;6127578;19;20369;-65
2022/12/02 02:05:59;;;;;;;31.73;11.98;;;3.20;99.90;;;;;;6123683;19;19933;-65
2022/12/02 02:08:07;;;;;;;29.98;11.68;;;3.00;99.90;;;;;;6126595;19;19919;-65
2022/12/02 02:10:11;;;;;;;29.20;11.73;;;2.90;99.90;;;;;;6126866;19;19943;-65
2022/12/02 02:12:15;;;;;;;22.98;9.63;;;3.10;99.90;;;;;;6126813;19;20272;-65
2022/12/02 02:14:20;;;;;;;29.20;11.50;;;3.30;99.90;;;;;;6126602;19;19939;-65
2022/12/02 02:16:24;;;;;;;23.98;10.30;;;;;;;;;;6127977;19;20286;-65
2022/12/02 02:18:28;;;;;;;27.35;9.10;;;2.90;99.90;;;;;;6126941;19;19943;-65
2022/12/02 02:20:32;;;;;;;28.00;10.02;;;;;;;;;;6126353;19;19918;-65
2022/12/02 02:22:44;;;;;;;25.15;10.30;;;2.80;99.90;;;;;;6129629;19;19918;-64
2022/12/02 02:24:50;;;;;;;21.92;9.98;;;3.10;99.90;;;;;;6126534;19;19915;-64
2022/12/02 02:26:54;;;;;;;26.38;9.80;;;2.80;99.90;;;;;;6124803;19;20054;-64
2022/12/02 02:28:58;;;;;;;25.25;9.55;;;2.80;99.90;;;;;;6127104;19;19951;-64
2022/12/02 02:31:02;;;;;;;24.23;9.13;;;2.70;99.90;;;;;;6128064;19;19922;-63
2022/12/02 02:33:09;;;;;;;26.08;10.07;;;2.60;99.90;;;;;;6126350;19;19943;-64
2022/12/02 02:35:13;;;;;;;22.52;9.60;;;;;;;;;;6123258;19;19919;-64
2022/12/02 02:37:17;;;;;;;26.95;9.40;;;2.70;99.90;;;;;;6125975;19;19918;-63
2022/12/02 02:39:21;;;;;;;23.05;9.13;;;2.60;99.90;;;;;;6127262;19;19922;-64
2022/12/02 02:41:28;;;;;;;23.88;9.10;;;2.50;99.90;;;;;;6126313;19;20328;-66
2022/12/02 02:43:33;;;;;;;25.83;9.77;;;2.50;99.90;;;;;;6127054;19;19918;-64
2022/12/02 02:45:39;;;;;;;25.35;10.10;;;2.50;99.90;;;;;;6127457;19;19923;-64
2022/12/02 02:47:43;;;;;;;27.35;9.65;;;2.30;99.90;;;;;;6128306;19;19923;-63
2022/12/02 02:49:47;;;;;;;26.98;9.93;;;2.50;99.90;;;;;;6129116;19;19927;-64
2022/12/02 02:51:51;;;;;;;25.70;9.82;;;2.50;99.90;;;;;;6128816;19;19923;-64
2022/12/02 02:53:55;;;;;;;22.23;8.73;;;2.70;99.90;;;;;;6125936;19;19915;-63
2022/12/02 02:55:59;;;;;;;27.13;11.48;;;;;;;;;;6126900;19;19956;-64
2022/12/02 02:58:12;;;;;;;28.23;9.65;;;2.50;99.90;;;;;;6126410;19;19930;-64
2022/12/02 03:00:16;;;;;;;26.17;9.75;;;;;;;;;;6126053;19;19947;-65
2022/12/02 03:02:21;;;;;;;26.10;9.88;;;2.40;99.90;;;;;;6125545;19;20365;-63
2022/12/02 03:04:26;;;;;;;25.90;10.82;;;2.40;99.90;;;;;;6126136;19;19935;-64
2022/12/02 03:06:33;;;;;;;24.42;9.15;;;2.60;99.90;;;;;;6125379;19;19923;-64
2022/12/02 03:08:41;;;;;;;26.55;9.73;;;2.60;99.90;;;;;;6125082;19;19940;-64
2022/12/02 03:10:45;;;;;;;24.67;9.65;;;2.20;99.90;;;;;;6126273;19;19930;-64
2022/12/02 03:12:52;;;;;;;22.73;9.23;;;2.20;99.90;;;;;;6125072;19;19918;-64
2022/12/02 03:15:00;;;;;;;22.17;9.07;;;2.20;99.90;;;;;;6124312;19;19915;-64
2022/12/02 03:17:05;;;;;;;24.80;9.88;;;2.40;99.90;;;;;;6126093;19;19918;-64
2022/12/02 03:19:09;;;;;;;29.13;10.52;;;2.40;99.90;;;;;;6126441;19;20406;-64
2022/12/02 03:21:13;;;;;;;23.88;9.32;;;2.10;99.90;;;;;;6124860;19;19927;-64
2022/12/02 03:23:17;;;;;;;24.95;10.13;;;2.30;99.90;;;;;;6128085;19;20019;-66
2022/12/02 03:25:22;;;;;;;31.02;11.45;;;2.20;99.90;;;;;;6125193;19;19930;-65
2022/12/02 03:27:26;;;;;;;23.63;10.18;;;2.40;99.90;;;;;;6120079;19;19926;-65
2022/12/02 03:29:31;;;;;;;29.30;10.93;;;;;;;;;;6127873;19;19923;-66
2022/12/02 03:31:38;;;;;;;32.78;10.50;;;2.30;99.90;;;;;;6125244;19;20268;-65
2022/12/02 03:33:40;;;;;;;23.13;9.88;;;2.20;99.90;;;;;;6125043;19;20285;-65
2022/12/02 03:35:44;;;;;;;30.67;10.70;;;;;;;;;;6125753;19;19932;-65
2022/12/02 03:37:48;;;;;;;24.88;10.30;;;2.30;99.90;;;;;;6125044;19;20345;-65
2022/12/02 03:39:53;;;;;;;26.50;9.52;;;2.20;99.90;;;;;;6127110;19;19919;-65
2022/12/02 03:41:57;;;;;;;32.00;12.18;;;2.30;99.90;;;;;;6125117;19;19980;-65
2022/12/02 03:44:01;;;;;;;31.10;12.00;;;;;;;;;;6124168;19;19929;-66
2022/12/02 03:46:06;;;;;;;28.33;9.93;;;2.20;99.90;;;;;;6120523;19;20039;-65
2022/12/02 03:48:19;;;;;;;23.35;10.00;;;2.30;99.90;;;;;;6131642;19;19919;-65
2022/12/02 03:50:24;;;;;;;30.45;10.68;;;2.20;99.90;;;;;;6128388;19;19970;-66
2022/12/02 03:52:29;;;;;;;32.28;11.48;;;2.50;99.90;;;;;;6130538;19;19947;-64
2022/12/02 03:54:33;;;;;;;28.63;11.18;;;2.40;99.90;;;;;;6130087;19;20369;-64
2022/12/02 03:56:39;;;;;;;29.00;11.10;;;2.30;99.90;;;;;;6128977;19;20022;-64
2022/12/02 03:58:48;;;;;;;28.25;10.50;;;2.30;99.90;;;;;;6132167;19;19919;-64
2022/12/02 04:00:53;;;;;;;31.65;11.18;;;;;;;;;;6130032;19;20372;-64
2022/12/02 04:02:57;;;;;;;31.15;11.82;;;;;;;;;;6129477;19;20362;-64
2022/12/02 04:05:03;;;;;;;32.85;11.18;;;2.50;99.90;;;;;;6128457;19;19927;-65
2022/12/02 04:07:09;;;;;;;32.28;11.68;;;;;;;;;;6128024;19;19947;-64
2022/12/02 04:09:12;;;;;;;28.13;11.18;;;2.40;99.90;;;;;;6129786;19;19943;-65
2022/12/02 04:11:16;;;;;;;32.92;12.65;;;2.60;99.90;;;;;;6131714;19;19947;-64
2022/12/02 04:13:20;;;;;;;31.58;11.27;;;2.20;99.90;;;;;;6131228;19;19922;-64
2022/12/02 04:15:25;;;;;;;30.27;11.15;;;;;;;;;;6130610;19;20370;-64
2022/12/02 04:17:29;;;;;;;29.98;11.10;;;2.50;99.90;;;;;;6129444;19;19926;-63
2022/12/02 04:19:33;;;;;;;28.10;10.98;;;;;;;;;;6129593;19;19922;-64
2022/12/02 04:21:39;;;;;;;38.10;12.50;;;2.40;99.90;;;;;;6128495;19;19918;-64
2022/12/02 04:23:43;;;;;;;30.75;11.20;;;2.20;99.90;;;;;;6129109;19;20419;-64
2022/12/02 04:25:47;;;;;;;28.77;12.27;;;2.20;99.90;;;;;;6130457;19;20285;-64
2022/12/02 04:27:51;;;;;;;29.80;11.00;;;2.40;99.90;;;;;;6127880;19;19948;-63
2022/12/02 04:29:55;;;;;;;34.25;12.73;;;2.20;99.90;;;;;;6127880;19;19915;-64
2022/12/02 04:31:58;;;;;;;30.70;12.00;;;2.50;99.90;;;;;;6129357;19;20349;-64
2022/12/02 04:34:02;;;;;;;29.70;11.30;;;;;;;;;;6128842;19;20457;-65
2022/12/02 04:36:07;;;;;;;32.38;10.73;;;2.50;99.90;;;;;;6121274;19;20092;-64
2022/12/02 04:38:14;;;;;;;32.45;11.93;;;2.40;99.90;;;;;;6130722;19;19948;-64
2022/12/02 04:40:18;;;;;;;33.55;11.32;;;2.10;99.90;;;;;;6129147;19;19929;-64
2022/12/02 04:42:22;;;;;;;29.60;10.18;;;2.40;99.90;;;;;;6128986;19;19947;-64
2022/12/02 04:44:25;;;;;;;30.30;11.15;;;2.40;99.90;;;;;;6128851;19;19915;-64
2022/12/02 04:46:29;;;;;;;30.48;11.48;;;2.40;99.90;;;;;;6128575;19;19943;-64
2022/12/02 04:48:33;;;;;;;31.42;11.85;;;1.90;99.90;;;;;;6131867;19;19911;-64
2022/12/02 04:50:37;;;;;;;31.02;11.55;;;;;;;;;;6129613;19;20332;-64
2022/12/02 04:52:41;;;;;;;33.97;12.32;;;2.20;99.90;;;;;;6128464;19;20368;-64
2022/12/02 04:54:48;;;;;;;31.33;11.85;;;2.50;99.90;;;;;;6127696;19;19947;-63
2022/12/02 04:56:52;;;;;;;29.08;11.80;;;;;;;;;;6129402;19;19951;-64
2022/12/02 04:58:56;;;;;;;29.88;11.10;;;2.50;99.90;;;;;;6127546;19;19914;-64
2022/12/02 05:01:00;;;;;;;35.67;12.57;;;;;;;;;;6127226;19;20324;-64
2022/12/02 05:03:04;;;;;;;35.20;12.20;;;2.50;99.90;;;;;;6126857;19;19943;-64
2022/12/02 05:05:09;;;;;;;31.13;11.10;;;2.70;99.90;;;;;;6129479;19;19922;-64
2022/12/02 05:07:14;;;;;;;28.05;11.82;;;;;;;;;;6127599;19;19967;-64
2022/12/02 05:09:18;;;;;;;37.40;12.52;;;2.40;99.90;;;;;;6128143;19;19945;-64
2022/12/02 05:11:25;;;;;;;30.55;11.15;;;;;;;;;;6130910;19;19918;-64
2022/12/02 05:13:29;;;;;;;30.63;11.23;;;2.50;99.90;;;;;;6128205;19;19914;-64
2022/12/02 05:15:34;;;;;;;33.97;12.82;;;;;;;;;;6124088;19;20372;-64
2022/12/02 05:17:37;;;;;;;39.30;11.98;;;2.60;99.90;;;;;;6130173;19;19943;-64
2022/12/02 05:19:42;;;;;;;38.58;12.10;;;2.50;99.90;;;;;;6129009;19;20332;-64
2022/12/02 05:21:46;;;;;;;33.30;11.68;;;2.60;99.90;;;;;;6129363;19;19974;-64
2022/12/02 05:23:50;;;;;;;30.90;11.75;;;2.60;99.90;;;;;;6129666;19;20660;-64
2022/12/02 05:25:54;;;;;;;31.15;12.23;;;2.80;99.90;;;;;;6127115;19;19922;-64
2022/12/02 05:28:00;;;;;;;30.50;11.98;;;2.80;99.90;;;;;;6124718;19;19918;-64
2022/12/02 05:30:04;;;;;;;34.45;12.88;;;;;;;;;;6129099;19;20348;-64
2022/12/02 05:32:08;;;;;;;35.90;13.40;;;2.50;99.90;;;;;;6130524;19;19939;-64
2022/12/02 05:34:12;;;;;;;34.05;12.05;;;2.70;99.90;;;;;;6130188;19;19922;-64
2022/12/02 05:36:16;;;;;;;29.15;12.40;;;1.80;99.90;;;;;;6129072;19;19985;-64
2022/12/02 05:38:20;;;;;;;29.73;11.43;;;;;;;;;;6127996;19;20325;-64
2022/12/02 05:40:24;;;;;;;31.77;11.13;;;2.70;99.90;;;;;;6127895;19;19918;-64
2022/12/02 05:42:28;;;;;;;33.40;11.52;;;2.70;99.90;;;;;;6127966;19;19947;-65
2022/12/02 05:44:36;;;;;;;32.97;11.35;;;2.70;99.90;;;;;;6127683;19;20245;-64
2022/12/02 05:46:40;;;;;;;28.50;10.55;;;2.80;99.90;;;;;;6129717;19;19922;-64
2022/12/02 05:48:44;;;;;;;33.45;11.63;;;2.40;99.90;;;;;;6125277;19;19922;-64
2022/12/02 05:50:49;;;;;;;35.60;12.00;;;;;;;;;;6128010;19;19918;-63
2022/12/02 05:52:53;;;;;;;36.75;12.15;;;;;;;;;;6127488;19;19965;-65
2022/12/02 05:55:00;;;;;;;35.30;11.88;;;2.70;99.90;;;;;;6126722;19;20001;-65
2022/12/02 05:57:08;;;;;;;36.70;12.00;;;2.50;99.90;;;;;;6126911;19;19921;-64
2022/12/02 05:59:16;;;;;;;34.05;12.50;;;2.90;99.90;;;;;;6126760;19;19914;-63
2022/12/02 06:01:28;;;;;;;38.42;12.13;;;2.70;99.90;;;;;;6127776;19;19918;-64
2022/12/02 06:03:32;;;;;;;33.13;11.48;;;2.80;99.90;;;;;;6125952;19;19943;-63
2022/12/02 06:05:41;;;;;;;33.83;11.95;;;2.50;99.90;;;;;;6126158;19;19918;-64
2022/12/02 06:07:46;;;;;;;29.63;11.57;;;2.50;99.90;;;;;;6127467;19;19990;-64
2022/12/02 06:09:53;;;;;;;37.85;12.05;;;2.70;99.90;;;;;;6125998;19;19915;-64
2022/12/02 06:11:58;;;;;;;33.40;11.70;;;2.80;99.90;;;;;;6127399;19;19929;-64
2022/12/02 06:14:05;;;;;;;35.72;11.60;;;2.80;99.90;;;;;;6127117;19;20314;-64
2022/12/02 06:16:19;;;;;;;36.25;11.63;;;2.50;99.90;;;;;;6125941;19;20365;-64
2022/12/02 06:18:31;;;;;;;34.08;11.57;;;2.70;99.90;;;;;;6127200;19;19932;-64
2022/12/02 06:20:36;;;;;;;32.53;11.27;;;2.70;99.90;;;;;;6126537;19;19922;-64
2022/12/02 06:22:40;;;;;;;32.22;11.38;;;2.70;99.90;;;;;;6130170;19;19917;-65
2022/12/02 06:24:44;;;;;;;36.53;11.77;;;2.40;99.90;;;;;;6126501;19;19926;-64
2022/12/02 06:26:48;;;;;;;35.60;13.02;;;2.40;99.90;;;;;;6128028;19;20258;-64
2022/12/02 06:28:58;;;;;;;38.08;11.82;;;2.20;99.90;;;;;;6125208;19;19917;-64
2022/12/02 06:31:11;;;;;;;30.98;11.38;;;2.40;99.90;;;;;;6123374;19;19910;-64
2022/12/02 06:33:24;;;;;;;32.63;10.77;;;2.70;99.90;;;;;;6129052;19;19922;-65
2022/12/02 06:35:33;;;;;;;33.05;10.85;;;2.40;99.90;;;;;;6124779;19;19923;-64
2022/12/02 06:37:36;;;;;;;31.30;11.38;;;1.30;99.90;;;;;;6124506;19;19922;-64
2022/12/02 06:39:41;;;;;;;35.90;12.05;;;2.50;99.90;;;;;;6126423;19;19926;-64
2022/12/02 06:41:45;;;;;;;29.73;10.98;;;;;;;;;;6125768;19;20467;-64
2022/12/02 06:46:15;;;;;;;35.03;11.35;;;2.60;99.90;;;;;;6127750;19;19959;-64
2022/12/02 06:48:27;;;;;;;35.75;10.73;;;2.30;99.90;;;;;;6123625;19;20011;-63
2022/12/02 06:50:39;;;;;;;31.75;10.93;;;2.80;99.90;;;;;;6128728;19;19918;-63
2022/12/02 06:52:46;;;;;;;36.45;12.07;;;2.90;99.90;;;;;;6126699;19;19935;-64
2022/12/02 06:54:57;;;;;;;38.78;11.65;;;2.70;99.90;;;;;;6125866;19;19947;-64
2022/12/02 06:57:03;;;;;;;31.05;10.82;;;2.70;99.90;;;;;;6124865;19;19934;-64
2022/12/02 06:59:07;;;;;;;37.20;10.18;;;2.40;99.90;;;;;;6125589;19;19982;-64
2022/12/02 07:01:20;;;;;;;31.80;10.27;;;2.80;99.90;;;;;;6124416;19;20349;-64
2022/12/02 07:03:32;;;;;;;40.10;12.73;;;3.00;99.90;;;;;;6117628;19;20014;-64
2022/12/02 07:05:38;;;;;;;37.13;11.63;;;2.60;99.90;;;;;;6124492;19;19955;-65
2022/12/02 07:07:42;;;;;;;39.33;12.27;;;;;;;;;;6123621;19;19921;-64
2022/12/02 07:09:48;;;;;;;33.28;11.80;;;2.60;99.90;;;;;;6122578;19;19948;-68
2022/12/02 07:11:54;;;;;;;35.10;10.82;;;2.80;99.90;;;;;;6126904;19;19929;-67
2022/12/02 07:13:58;;;;;;;36.15;11.25;;;2.80;99.90;;;;;;6126638;19;20346;-67
2022/12/02 07:16:02;;;;;;;36.95;11.65;;;;;;;;;;6127430;19;19919;-67
2022/12/02 07:18:14;;;;;;;34.75;12.02;;;2.60;99.90;;;;;;6124972;19;19930;-67
2022/12/02 07:20:32;;;;;;;34.58;11.93;;;2.60;99.90;;;;;;6120725;19;19943;-65
2022/12/02 07:22:42;;;;;;;37.88;11.73;;;2.60;99.90;;;;;;6123468;19;20366;-66
2022/12/02 07:24:52;;;;;;;42.35;12.93;;;2.50;99.90;;;;;;6124697;19;19915;-64
2022/12/02 07:26:57;;;;;;;39.08;12.10;;;;;;;;;;6125291;19;19941;-64
2022/12/02 07:29:04;;;;;;;37.60;11.98;;;;;;;;;;6123612;19;20451;-64
2022/12/02 07:31:15;;;;;;;36.35;12.75;;;2.60;99.90;;;;;;6124558;19;19922;-65
2022/12/02 07:33:18;;;;;;;36.97;11.68;;;2.10;99.90;;;;;;6125064;19;19926;-65
2022/12/02 07:35:23;;;;;;;36.33;11.20;;;;;;;;;;6124359;19;20384;-65
2022/12/02 07:37:27;;;;;;;41.35;12.30;;;2.50;99.90;;;;;;6124948;19;19915;-64
2022/12/02 07:39:33;;;;;;;36.42;10.15;;;2.80;99.90;;;;;;6124845;19;19917;-64
2022/12/02 07:41:37;;;;;;;33.45;10.57;;;2.20;99.90;;;;;;6124873;19;20301;-64
2022/12/02 07:43:41;;;;;;;36.42;12.18;;;2.80;99.90;;;;;;6127026;19;19990;-64
2022/12/02 07:45:45;;;;;;;36.33;11.68;;;3.00;99.90;;;;;;6125004;19;19915;-65
2022/12/02 07:47:49;;;;;;;40.33;13.30;;;2.30;99.90;;;;;;6124999;19;19951;-64
2022/12/02 07:49:53;;;;;;;40.53;12.00;;;2.40;99.90;;;;;;6124978;19;20001;-64
2022/12/02 07:51:57;;;;;;;35.25;11.05;;;;;;;;;;6124601;19;19914;-65
2022/12/02 07:54:01;;;;;;;33.35;10.77;;;;;;;;;;6124394;19;19948;-65
2022/12/02 07:56:08;;;;;;;39.35;10.52;;;2.70;99.90;;;;;;6125926;19;19935;-65
2022/12/02 07:58:12;;;;;;;39.00;12.38;;;2.40;99.90;;;;;;6124309;19;19918;-65
2022/12/02 08:00:17;;;;;;;33.88;11.52;;;2.60;99.90;;;;;;6124194;19;19915;-65
2022/12/02 08:02:21;;;;;;;31.30;10.73;;;2.60;99.90;;;;;;6123598;19;20570;-64
2022/12/02 08:04:25;;;;;;;39.05;12.20;;;2.80;99.90;;;;;;6124118;19;20345;-65
2022/12/02 08:06:29;;;;;;;31.65;10.20;;;2.70;99.90;;;;;;6126471;19;20357;-64
2022/12/02 08:08:33;;;;;;;29.23;9.63;;;2.20;99.90;;;;;;6114011;19;20006;-65
2022/12/02 08:10:37;;;;;;;26.75;10.27;;;2.40;99.90;;;;;;6123998;19;19918;-64
2022/12/02 08:12:43;;;;;;;36.75;9.93;;;2.60;99.90;;;;;;6124012;19;20303;-64
2022/12/02 08:14:47;;;;;;;34.63;10.65;;;;;;;;;;6123752;19;19915;-64
2022/12/02 08:16:51;;;;;;;36.85;12.15;;;2.80;99.90;;;;;;6123812;19;19915;-64
2022/12/02 08:18:56;;;;;;;34.10;9.95;;;;;;;;;;6123859;19;19919;-64
2022/12/02 08:21:00;;;;;;;31.73;10.95;;;2.70;99.90;;;;;;6122568;19;19918;-64
2022/12/02 08:23:04;;;;;;;32.67;11.02;;;2.70;99.90;;;;;;6125738;19;20433;-64
2022/12/02 08:25:09;;;;;;;32.05;10.38;;;2.70;99.90;;;;;;6123651;19;19919;-64
2022/12/02 08:27:13;;;;;;;36.35;10.90;;;2.70;99.90;;;;;;6123235;19;19943;-64
2022/12/02 08:29:19;;;;;;;42.15;12.25;;;2.70;99.90;;;;;;6122174;19;19922;-65
2022/12/02 08:31:23;;;;;;;37.53;11.90;;;2.40;99.90;;;;;;6124236;19;19914;-64
2022/12/02 08:33:27;;;;;;;36.28;11.45;;;2.70;99.90;;;;;;6132654;19;20256;-64
2022/12/02 08:35:31;;;;;;;35.20;11.82;;;;;;;;;;6129585;19;19954;-64
2022/12/02 08:37:35;;;;;;;42.28;11.93;;;;;;;;;;6129639;19;20353;-65
2022/12/02 08:39:39;;;;;;;37.25;11.77;;;;;;;;;;6129038;19;19910;-64
2022/12/02 08:41:43;;;;;;;35.03;11.82;;;2.50;99.90;;;;;;6128522;19;19914;-65
2022/12/02 08:43:47;;;;;;;36.22;11.77;;;2.80;99.90;;;;;;6129299;19;19947;-65
2022/12/02 08:45:54;;;;;;;36.35;11.82;;;2.50;99.90;;;;;;6127129;19;19943;-65
2022/12/02 08:47:58;;;;;;;39.58;13.23;;;2.00;99.90;;;;;;6128796;19;19922;-65
2022/12/02 08:50:02;;;;;;;36.03;11.52;;;;;;;;;;6126829;19;19915;-64
2022/12/02 08:52:06;;;;;;;41.88;12.95;;;2.20;99.90;;;;;;6128992;19;19943;-65
2022/12/02 08:54:09;;;;;;;43.35;13.38;;;2.50;99.90;;;;;;6129165;19;19919;-65
2022/12/02 08:56:14;;;;;;;37.70;12.73;;;;;;;;;;6128235;19;19915;-64
2022/12/02 08:58:18;;;;;;;47.33;13.50;;;2.80;99.90;;;;;;6129108;19;19918;-64
2022/12/02 09:00:22;;;;;;;37.05;12.40;;;2.40;99.90;;;;;;6128286;19;20344;-65
2022/12/02 09:02:28;;;;;;;37.17;12.20;;;2.50;99.90;;;;;;6127376;19;19918;-64
2022/12/02 09:04:32;;;;;;;42.03;13.05;;;2.70;99.90;;;;;;6128442;19;20345;-64
2022/12/02 09:06:36;;;;;;;35.45;12.50;;;2.90;99.90;;;;;;6129987;19;19994;-64
2022/12/02 09:08:40;;;;;;;42.05;12.30;;;2.10;99.90;;;;;;6127459;19;19914;-65
2022/12/02 09:10:44;;;;;;;40.00;11.88;;;;;;;;;;6128863;19;20355;-65
2022/12/02 09:12:48;;;;;;;42.20;13.15;;;2.80;99.90;;;;;;6129998;19;19914;-64
2022/12/02 09:14:52;;;;;;;42.05;12.85;;;;;;;;;;6128711;19;19910;-64
2022/12/02 09:16:56;;;;;;;42.92;13.85;;;;;;;;;;6128083;19;19919;-64
2022/12/02 09:19:03;;;;;;;41.58;13.23;;;2.80;99.90;;;;;;6128108;19;19910;-64
2022/12/02 09:21:07;;;;;;;39.17;11.80;;;2.60;99.90;;;;;;6126954;19;19930;-64
2022/12/02 09:23:11;;;;;;;38.38;12.45;;;2.90;99.90;;;;;;6129889;19;20268;-64
2022/12/02 09:25:16;;;;;;;39.88;12.40;;;2.90;99.90;;;;;;6127915;19;20261;-64
2022/12/02 09:27:20;;;;;;;37.45;13.25;;;2.80;99.90;;;;;;6127124;19;19918;-64
2022/12/02 09:29:24;;;;;;;38.15;13.70;;;;;;;;;;6126955;19;19943;-65
2022/12/02 09:31:28;;;;;;;39.47;13.30;;;2.60;99.90;;;;;;6127808;19;19914;-66
2022/12/02 09:33:32;;;;;;;37.80;12.68;;;3.00;99.90;;;;;;6127857;19;20341;-64
2022/12/02 09:35:38;;;;;;;40.13;12.98;;;2.80;99.90;;;;;;6127569;19;19922;-64
2022/12/02 09:37:42;;;;;;;43.17;13.13;;;2.50;99.90;;;;;;6127757;19;19935;-64
2022/12/02 09:39:47;;;;;;;32.90;11.52;;;3.00;99.90;;;;;;6127982;19;19940;-64
2022/12/02 09:41:51;;;;;;;41.38;13.82;;;2.80;99.90;;;;;;6127188;19;20370;-64
2022/12/02 09:43:55;;;;;;;39.10;12.52;;;3.20;99.90;;;;;;6125928;19;19947;-63
2022/12/02 09:46:00;;;;;;;44.35;14.13;;;3.00;99.90;;;;;;6127177;19;19926;-64
2022/12/02 09:48:05;;;;;;;43.42;12.45;;;3.30;99.90;;;;;;6126889;19;19914;-63
2022/12/02 09:50:12;;;;;;;39.83;13.23;;;2.90;99.90;;;;;;6127125;19;19926;-64
2022/12/02 09:52:23;;;;;;;41.10;13.95;;;3.00;99.90;;;;;;6126523;19;19918;-63
2022/12/02 09:54:27;;;;;;;36.78;12.30;;;2.20;99.90;;;;;;6127084;19;19918;-63
2022/12/02 09:56:31;;;;;;;39.20;13.32;;;2.70;99.90;;;;;;6126503;19;20305;-63
2022/12/02 09:58:35;;;;;;;39.70;13.27;;;2.60;99.90;;;;;;6126802;19;19919;-63
2022/12/02 10:00:39;;;;;;;35.25;11.35;;;;;;;;;;6129079;19;19923;-63
2022/12/02 10:02:46;;;;;;;36.55;12.25;;;2.50;99.90;;;;;;6126397;19;20256;-63
2022/12/02 10:04:50;;;;;;;34.00;12.05;;;;;;;;;;6126987;19;19918;-63
2022/12/02 10:06:54;;;;;;;39.53;13.80;;;3.10;99.90;;;;;;6126859;19;19914;-64
2022/12/02 10:09:01;;;;;;;42.55;12.60;;;2.70;99.90;;;;;;6126633;19;20377;-65
2022/12/02 10:11:05;;;;;;;39.20;13.82;;;;;;;;;;6130534;19;20000;-64
2022/12/02 10:13:12;;;;;;;39.22;13.38;;;2.50;99.90;;;;;;6126940;19;19919;-63
2022/12/02 10:15:19;;;;;;;33.10;13.68;;;2.60;99.90;;;;;;6126474;19;20366;-64
2022/12/02 10:17:23;;;;;;;37.20;13.50;;;;;;;;;;6126871;19;19919;-64
2022/12/02 10:19:28;;;;;;;37.90;13.90;;;;;;;;;;6126020;19;20341;-63
2022/12/02 10:21:32;;;;;;;39.70;13.23;;;2.60;99.90;;;;;;6124872;19;19914;-64
2022/12/02 10:23:55;;;;;;;37.80;13.88;;;2.80;99.90;;;;;;6126564;19;19943;-65
2022/12/02 10:26:13;;;;;;;38.55;12.85;;;2.40;99.90;;;;;;6126413;19;20283;-64
2022/12/02 10:28:24;;;;;;;33.25;12.98;;;2.30;99.90;;;;;;6126267;19;19931;-64
2022/12/02 10:30:29;;;;;;;34.72;13.65;;;2.70;99.90;;;;;;6126560;19;20286;-65
2022/12/02 10:32:33;;;;;;;34.20;13.10;;;2.20;99.90;;;;;;6126407;19;19951;-63
2022/12/02 10:34:37;;;;;;;40.90;13.38;;;2.90;99.90;;;;;;6126152;19;19919;-64
2022/12/02 10:36:43;;;;;;;36.17;13.63;;;2.80;99.90;;;;;;6125933;19;20303;-64
2022/12/02 10:38:47;;;;;;;37.75;13.68;;;3.00;99.90;;;;;;6126581;19;19922;-64
2022/12/02 10:40:51;;;;;;;39.17;14.35;;;;;;;;;;6126228;19;19926;-64
2022/12/02 10:43:14;;;;;;;44.40;14.65;;;2.80;99.90;;;;;;6126460;19;19918;-65
2022/12/02 10:45:20;;;;;;;39.22;15.32;;;2.80;99.90;;;;;;6126121;19;19923;-65
2022/12/02 10:47:26;;;;;;;32.40;12.73;;;2.80;99.90;;;;;;6126025;19;19914;-64
2022/12/02 10:49:33;;;;;;;32.15;13.07;;;2.80;99.90;;;;;;6125586;19;19926;-64
2022/12/02 10:51:37;;;;;;;39.15;13.32;;;;;;;;;;6127212;19;19945;-64
2022/12/02 10:53:41;;;;;;;35.25;13.43;;;;;;;;;;6125302;19;19919;-64
2022/12/02 10:55:47;;;;;;;38.33;13.52;;;2.80;99.90;;;;;;6122617;19;20264;-64
2022/12/02 10:57:52;;;;;;;33.40;13.10;;;3.00;99.90;;;;;;6125570;19;20404;-63
2022/12/02 11:00:01;;;;;;;40.78;14.30;;;2.90;99.90;;;;;;6125997;19;19919;-64
2022/12/02 11:02:05;;;;;;;42.15;13.80;;;3.20;99.90;;;;;;6126817;19;19921;-64
2022/12/02 11:04:11;;;;;;;37.15;14.40;;;2.60;99.90;;;;;;6125994;19;19915;-64
2022/12/02 11:06:17;;;;;;;35.80;13.77;;;;;;;;;;6125646;19;20260;-65